createdAt,value
2022-08-01T00:00:37.855Z,28.50
2022-08-01T00:03:05.786Z,28.50
2022-08-01T00:05:33.219Z,28.60
2022-08-01T00:08:00.702Z,28.50
2022-08-01T00:10:28.353Z,28.50
2022-08-01T00:12:55.633Z,28.50
2022-08-01T00:15:23.011Z,28.50
2022-08-01T00:17:50.261Z,28.50
2022-08-01T00:20:17.654Z,28.50
2022-08-01T00:22:45.021Z,28.50
2022-08-01T00:25:12.372Z,28.50
2022-08-01T00:27:39.762Z,28.40
2022-08-01T00:30:14.026Z,28.40
2022-08-01T00:32:43.365Z,28.40
2022-08-01T00:35:12.047Z,28.40
2022-08-01T00:37:39.369Z,28.40
2022-08-01T00:40:07.908Z,28.40
2022-08-01T00:42:39.083Z,28.40
2022-08-01T00:45:09.508Z,28.40
2022-08-01T00:47:36.840Z,28.40
2022-08-01T00:50:05.998Z,28.40
2022-08-01T00:52:35.299Z,28.30
2022-08-01T00:55:02.730Z,28.30
2022-08-01T00:58:02.110Z,28.30
2022-08-01T01:00:18.593Z,28.30
2022-08-01T01:02:53.849Z,28.30
2022-08-01T01:05:21.391Z,28.30
2022-08-01T01:08:05.795Z,28.30
2022-08-01T01:10:49.263Z,28.20
2022-08-01T01:13:28.300Z,28.30
2022-08-01T01:15:55.561Z,28.20
2022-08-01T01:18:28.342Z,28.20
2022-08-01T01:21:13.611Z,28.10
2022-08-01T01:23:56.101Z,28.10
2022-08-01T01:26:49.635Z,28.10
2022-08-01T01:29:59.375Z,28.00
2022-08-01T01:32:39.442Z,28.00
2022-08-01T01:35:16.690Z,28.00
2022-08-01T01:37:47.208Z,28.00
2022-08-01T01:40:16.343Z,28.00
2022-08-01T01:42:45.003Z,27.80
2022-08-01T01:45:14.066Z,27.90
2022-08-01T01:47:42.120Z,27.80
2022-08-01T01:50:12.132Z,27.90
2022-08-01T01:52:41.612Z,27.80
2022-08-01T01:55:10.777Z,27.90
2022-08-01T01:57:42.077Z,27.80
2022-08-01T02:00:12.866Z,27.70
2022-08-01T02:02:41.634Z,27.80
2022-08-01T02:05:12.564Z,27.80
2022-08-01T02:07:41.849Z,27.70
2022-08-01T02:10:10.646Z,27.70
2022-08-01T02:12:42.852Z,27.70
2022-08-01T02:15:12.446Z,27.70
2022-08-01T02:17:44.534Z,27.70
2022-08-01T02:20:12.560Z,27.70
2022-08-01T02:23:04.399Z,27.70
2022-08-01T02:26:08.516Z,27.60
2022-08-01T02:29:07.688Z,27.60
2022-08-01T02:31:39.575Z,27.60
2022-08-01T02:34:10.938Z,27.60
2022-08-01T02:36:39.291Z,27.50
2022-08-01T02:39:13.004Z,27.60
2022-08-01T02:41:44.275Z,27.50
2022-08-01T02:44:28.712Z,27.50
2022-08-01T02:47:03.304Z,27.50
2022-08-01T02:49:37.486Z,27.50
2022-08-01T02:52:09.060Z,27.40
2022-08-01T02:54:37.655Z,27.40
2022-08-01T02:57:08.247Z,27.30
2022-08-01T02:59:41.447Z,27.30
2022-08-01T03:02:11.259Z,27.30
2022-08-01T03:04:42.414Z,27.30
2022-08-01T03:07:12.010Z,27.30
2022-08-01T03:09:44.575Z,27.30
2022-08-01T03:12:16.546Z,27.30
2022-08-01T03:14:45.613Z,27.20
2022-08-01T03:17:17.335Z,27.20
2022-08-01T03:19:47.245Z,27.20
2022-08-01T03:22:15.953Z,27.20
2022-08-01T03:24:45.329Z,27.20
2022-08-01T03:27:15.339Z,27.10
2022-08-01T03:29:44.571Z,27.10
2022-08-01T03:32:13.410Z,27.10
2022-08-01T03:34:41.358Z,27.00
2022-08-01T03:37:15.753Z,27.00
2022-08-01T03:39:51.182Z,27.00
2022-08-01T03:42:21.921Z,27.00
2022-08-01T03:44:59.469Z,26.90
2022-08-01T03:47:32.425Z,26.90
2022-08-01T03:50:01.316Z,26.90
2022-08-01T03:52:31.535Z,26.80
2022-08-01T03:55:04.158Z,26.90
2022-08-01T03:57:35.747Z,26.80
2022-08-01T04:00:10.275Z,26.80
2022-08-01T04:02:42.710Z,26.80
2022-08-01T04:05:10.619Z,26.80
2022-08-01T04:07:40.155Z,26.80
2022-08-01T04:10:08.025Z,26.80
2022-08-01T04:12:35.889Z,26.80
2022-08-01T04:15:03.754Z,26.80
2022-08-01T04:17:31.113Z,26.80
2022-08-01T04:19:58.455Z,26.80
2022-08-01T04:22:25.778Z,26.70
2022-08-01T04:24:57.173Z,26.80
2022-08-01T04:27:48.475Z,26.80
2022-08-01T04:30:31.416Z,26.80
2022-08-01T04:33:01.211Z,26.80
2022-08-01T04:36:02.857Z,26.70
2022-08-01T04:38:28.272Z,26.80
2022-08-01T04:40:57.175Z,26.80
2022-08-01T04:43:24.614Z,26.80
2022-08-01T04:45:52.736Z,26.80
2022-08-01T04:48:22.922Z,26.80
2022-08-01T04:50:51.243Z,26.80
2022-08-01T04:53:22.881Z,26.80
2022-08-01T04:55:50.283Z,26.80
2022-08-01T04:58:18.832Z,26.80
2022-08-01T05:00:47.990Z,26.80
2022-08-01T05:03:15.573Z,26.80
2022-08-01T05:05:43.019Z,26.80
2022-08-01T05:08:11.048Z,26.80
2022-08-01T05:10:38.529Z,26.80
2022-08-01T05:13:07.486Z,26.80
2022-08-01T05:15:37.692Z,26.80
2022-08-01T05:18:05.881Z,26.80
2022-08-01T05:20:35.180Z,26.80
2022-08-01T05:23:03.077Z,26.80
2022-08-01T05:25:57.476Z,26.80
2022-08-01T05:28:19.281Z,26.80
2022-08-01T05:30:46.891Z,26.80
2022-08-01T05:33:14.269Z,26.90
2022-08-01T05:35:48.720Z,26.90
2022-08-01T05:38:17.018Z,27.00
2022-08-01T05:40:44.377Z,27.00
2022-08-01T05:43:11.823Z,27.00
2022-08-01T05:45:39.349Z,27.10
2022-08-01T05:48:06.865Z,27.10
2022-08-01T05:50:34.762Z,27.10
2022-08-01T05:53:02.128Z,27.10
2022-08-01T05:55:29.655Z,27.10
2022-08-01T05:57:56.977Z,27.10
2022-08-01T06:00:24.375Z,27.20
2022-08-01T06:02:51.729Z,27.20
2022-08-01T06:05:19.108Z,27.20
2022-08-01T06:07:46.499Z,27.10
2022-08-01T06:10:13.893Z,27.10
2022-08-01T06:12:41.567Z,27.10
2022-08-01T06:15:09.321Z,27.10
2022-08-01T06:17:36.692Z,27.10
2022-08-01T06:20:05.237Z,27.10
2022-08-01T06:22:32.973Z,27.10
2022-08-01T06:25:00.416Z,27.10
2022-08-01T06:27:27.806Z,27.10
2022-08-01T06:32:27.936Z,27.10
2022-08-01T06:34:56.341Z,27.10
2022-08-01T06:37:24.736Z,27.10
2022-08-01T06:39:52.274Z,27.10
2022-08-01T06:42:19.603Z,27.10
2022-08-01T06:44:47.154Z,27.20
2022-08-01T06:47:14.488Z,27.20
2022-08-01T06:49:41.820Z,27.20
2022-08-01T06:52:09.607Z,27.20
2022-08-01T06:54:37.159Z,27.30
2022-08-01T06:57:07.577Z,27.30
2022-08-01T06:59:35.033Z,27.30
2022-08-01T07:02:02.611Z,27.30
2022-08-01T07:04:30.328Z,27.30
2022-08-01T07:06:58.219Z,27.20
2022-08-01T07:09:25.605Z,27.20
2022-08-01T07:11:53.762Z,27.20
2022-08-01T07:14:22.420Z,27.20
2022-08-01T07:16:50.316Z,27.20
2022-08-01T07:19:18.611Z,27.30
2022-08-01T07:21:45.881Z,27.30
2022-08-01T07:24:19.481Z,27.30
2022-08-01T07:26:53.197Z,27.30
2022-08-01T07:29:28.077Z,27.30
2022-08-01T07:31:57.120Z,27.30
2022-08-01T07:34:25.500Z,27.30
2022-08-01T07:36:53.537Z,27.30
2022-08-01T07:39:21.328Z,27.40
2022-08-01T07:42:05.603Z,27.40
2022-08-01T07:44:36.170Z,27.40
2022-08-01T07:47:04.163Z,27.40
2022-08-01T07:49:34.851Z,27.40
2022-08-01T07:52:05.168Z,27.40
2022-08-01T07:54:34.369Z,27.40
2022-08-01T07:57:04.096Z,27.50
2022-08-01T07:59:32.055Z,27.50
2022-08-01T08:01:59.695Z,27.50
2022-08-01T08:04:28.111Z,27.50
2022-08-01T08:06:55.616Z,27.50
2022-08-01T08:09:23.025Z,27.50
2022-08-01T08:11:50.443Z,27.60
2022-08-01T08:14:18.422Z,27.60
2022-08-01T08:16:46.702Z,27.60
2022-08-01T08:19:14.260Z,27.60
2022-08-01T08:21:42.169Z,27.60
2022-08-01T08:24:25.868Z,27.60
2022-08-01T08:26:59.899Z,27.60
2022-08-01T08:29:30.625Z,27.60
2022-08-01T08:31:58.855Z,27.70
2022-08-01T08:34:28.529Z,27.70
2022-08-01T08:36:57.146Z,27.70
2022-08-01T08:39:27.025Z,27.70
2022-08-01T08:41:54.391Z,27.80
2022-08-01T08:44:22.102Z,27.80
2022-08-01T08:46:52.195Z,27.70
2022-08-01T08:49:23.793Z,27.80
2022-08-01T08:51:52.859Z,27.80
2022-08-01T08:54:31.212Z,27.80
2022-08-01T08:57:02.831Z,27.90
2022-08-01T08:59:30.289Z,27.90
2022-08-01T09:01:58.931Z,27.90
2022-08-01T09:04:27.798Z,27.90
2022-08-01T09:06:55.975Z,27.90
2022-08-01T09:09:24.601Z,28.00
2022-08-01T09:11:54.877Z,28.00
2022-08-01T09:14:30.818Z,28.00
2022-08-01T09:17:11.361Z,28.00
2022-08-01T09:19:48.785Z,28.10
2022-08-01T09:22:22.032Z,28.10
2022-08-01T09:25:11.975Z,28.10
2022-08-01T09:27:44.229Z,28.10
2022-08-01T09:30:23.369Z,28.10
2022-08-01T09:33:11.285Z,28.10
2022-08-01T09:35:56.997Z,28.20
2022-08-01T09:38:30.147Z,28.20
2022-08-01T09:40:59.645Z,28.20
2022-08-01T09:43:32.065Z,28.20
2022-08-01T09:46:05.181Z,28.20
2022-08-01T09:48:33.679Z,28.20
2022-08-01T09:51:07.368Z,28.30
2022-08-01T09:53:52.445Z,28.30
2022-08-01T09:56:23.033Z,28.40
2022-08-01T09:58:59.821Z,28.40
2022-08-01T10:01:36.947Z,28.40
2022-08-01T10:04:09.738Z,28.40
2022-08-01T10:06:45.732Z,28.40
2022-08-01T10:09:15.188Z,28.40
2022-08-01T10:11:44.900Z,28.50
2022-08-01T10:14:18.275Z,28.50
2022-08-01T10:16:52.999Z,28.50
2022-08-01T10:19:28.889Z,28.50
2022-08-01T10:21:59.421Z,28.50
2022-08-01T10:24:30.309Z,28.60
2022-08-01T10:27:07.973Z,28.60
2022-08-01T10:29:46.413Z,28.60
2022-08-01T10:32:28.779Z,28.70
2022-08-01T10:34:58.057Z,28.80
2022-08-01T10:37:26.923Z,28.90
2022-08-01T10:40:14.113Z,28.80
2022-08-01T10:42:45.039Z,28.80
2022-08-01T10:45:14.755Z,28.80
2022-08-01T10:48:07.000Z,28.80
2022-08-01T10:50:44.699Z,28.80
2022-08-01T10:53:23.159Z,28.80
2022-08-01T10:55:57.391Z,28.90
2022-08-01T10:58:36.701Z,28.90
2022-08-01T11:01:18.169Z,28.90
2022-08-01T11:04:03.010Z,28.90
2022-08-01T11:06:34.580Z,28.90
2022-08-01T11:09:16.848Z,28.90
2022-08-01T11:12:13.468Z,29.00
2022-08-01T11:15:00.288Z,29.00
2022-08-01T11:17:41.828Z,29.10
2022-08-01T11:20:15.340Z,29.10
2022-08-01T11:23:02.232Z,29.20
2022-08-01T11:26:05.865Z,29.20
2022-08-01T11:28:32.049Z,29.20
2022-08-01T11:31:11.668Z,29.20
2022-08-01T11:33:45.874Z,29.20
2022-08-01T11:36:14.582Z,29.20
2022-08-01T11:38:50.963Z,29.30
2022-08-01T11:41:37.589Z,29.30
2022-08-01T11:44:07.526Z,29.30
2022-08-01T11:47:09.438Z,29.40
2022-08-01T11:49:48.689Z,29.30
2022-08-01T11:52:32.765Z,29.30
2022-08-01T11:55:04.614Z,29.30
2022-08-01T11:57:38.095Z,29.40
2022-08-01T12:00:15.303Z,29.40
2022-08-01T12:02:46.109Z,29.40
2022-08-01T12:05:17.703Z,29.40
2022-08-01T12:07:47.262Z,29.40
2022-08-01T12:10:17.281Z,29.40
2022-08-01T12:12:47.066Z,29.40
2022-08-01T12:15:15.153Z,29.50
2022-08-01T12:17:45.889Z,29.50
2022-08-01T12:20:30.072Z,29.50
2022-08-01T12:23:00.689Z,29.50
2022-08-01T12:25:28.225Z,29.60
2022-08-01T12:30:26.056Z,29.60
2022-08-01T12:32:55.303Z,29.60
2022-08-01T12:35:26.512Z,29.70
2022-08-01T12:37:56.037Z,29.70
2022-08-01T12:40:25.381Z,29.70
2022-08-01T12:43:03.039Z,29.70
2022-08-01T12:45:40.537Z,29.70
2022-08-01T12:48:21.773Z,29.80
2022-08-01T12:50:50.589Z,29.80
2022-08-01T12:53:19.730Z,29.70
2022-08-01T12:55:58.465Z,29.80
2022-08-01T12:58:34.398Z,29.80
2022-08-01T13:01:11.120Z,29.80
2022-08-01T13:03:39.248Z,29.90
2022-08-01T13:06:17.909Z,29.90
2022-08-01T13:08:46.357Z,30.00
2022-08-01T13:11:16.284Z,30.00
2022-08-01T13:13:49.355Z,30.00
2022-08-01T13:16:27.994Z,30.00
2022-08-01T13:19:01.946Z,30.00
2022-08-01T13:21:52.314Z,30.10
2022-08-01T13:24:27.504Z,30.10
2022-08-01T13:27:04.338Z,30.10
2022-08-01T13:29:44.026Z,30.10
2022-08-01T13:32:28.659Z,30.20
2022-08-01T13:35:10.422Z,30.20
2022-08-01T13:37:39.742Z,30.30
2022-08-01T13:40:08.932Z,30.30
2022-08-01T13:42:36.658Z,30.30
2022-08-01T13:45:14.303Z,30.40
2022-08-01T13:48:03.942Z,30.40
2022-08-01T13:50:30.753Z,30.40
2022-08-01T13:52:58.433Z,30.40
2022-08-01T13:55:26.633Z,30.40
2022-08-01T13:57:55.430Z,30.50
2022-08-01T14:00:22.799Z,30.50
2022-08-01T14:02:50.248Z,30.50
2022-08-01T14:05:17.653Z,30.50
2022-08-01T14:07:45.675Z,30.50
2022-08-01T14:10:19.612Z,30.50
2022-08-01T14:12:48.537Z,30.60
2022-08-01T14:15:36.818Z,30.60
2022-08-01T14:18:03.728Z,30.60
2022-08-01T14:20:35.352Z,30.70
2022-08-01T14:23:02.969Z,30.70
2022-08-01T14:26:00.601Z,30.70
2022-08-01T14:28:17.750Z,30.70
2022-08-01T14:30:45.310Z,30.70
2022-08-01T14:33:13.965Z,30.70
2022-08-01T14:36:01.682Z,30.70
2022-08-01T14:38:31.664Z,30.80
2022-08-01T17:26:10.867Z,31.70
2022-08-01T17:28:38.336Z,31.70
2022-08-01T17:33:45.678Z,31.60
2022-08-01T17:36:15.209Z,31.60
2022-08-01T17:38:42.631Z,31.50
2022-08-01T17:41:10.498Z,31.50
2022-08-01T17:43:37.843Z,31.40
2022-08-01T17:46:05.161Z,31.40
2022-08-01T17:48:32.517Z,31.30
2022-08-01T17:50:59.849Z,31.20
2022-08-01T17:53:27.190Z,31.20
2022-08-01T17:55:57.866Z,31.20
2022-08-01T17:58:49.999Z,31.10
2022-08-01T18:01:17.362Z,31.10
2022-08-01T18:03:45.216Z,31.10
2022-08-01T18:06:17.000Z,31.00
2022-08-01T18:08:47.532Z,31.00
2022-08-01T18:11:16.085Z,31.00
2022-08-01T18:13:44.163Z,31.00
2022-08-01T18:16:15.359Z,31.00
2022-08-01T18:18:43.975Z,30.90
2022-08-01T18:21:11.990Z,30.90
2022-08-01T18:23:39.555Z,30.90
2022-08-01T18:26:08.591Z,30.80
2022-08-01T18:28:42.086Z,30.80
2022-08-01T18:31:16.983Z,30.90
2022-08-01T18:33:44.872Z,30.80
2022-08-01T18:36:23.175Z,30.90
2022-08-01T18:39:01.845Z,30.90
2022-08-01T18:41:32.600Z,30.90
2022-08-01T18:44:05.638Z,30.90
2022-08-01T18:46:39.549Z,30.90
2022-08-01T18:49:08.732Z,30.90
2022-08-01T18:51:43.013Z,30.80
2022-08-01T18:54:12.177Z,30.80
2022-08-01T18:56:39.900Z,30.90
2022-08-01T18:59:07.445Z,30.90
2022-08-01T19:01:36.153Z,30.90
2022-08-01T19:04:03.557Z,30.80
2022-08-01T19:06:32.175Z,30.80
2022-08-01T19:09:02.635Z,30.80
2022-08-01T19:11:31.571Z,30.80
2022-08-01T19:13:59.317Z,30.80
2022-08-01T19:16:27.802Z,30.70
2022-08-01T19:18:55.573Z,30.70
2022-08-01T19:21:22.984Z,30.70
2022-08-01T19:24:09.112Z,30.70
2022-08-01T19:26:37.994Z,30.80
2022-08-01T19:29:20.208Z,30.80
2022-08-01T19:31:49.436Z,30.80
2022-08-01T19:34:19.290Z,30.80
2022-08-01T19:36:48.786Z,30.80
2022-08-01T19:39:23.444Z,30.80
2022-08-01T19:41:52.041Z,30.80
2022-08-01T19:44:22.738Z,30.80
2022-08-01T19:49:20.874Z,30.60
2022-08-01T19:51:55.305Z,30.50
2022-08-01T19:54:26.446Z,30.50
2022-08-01T19:56:54.658Z,30.40
2022-08-01T19:59:23.892Z,30.40
2022-08-01T20:01:55.106Z,30.40
2022-08-01T20:04:24.343Z,30.40
